South Alabama Regional At Bill Benton Field Airport
K79J : now visible

Airfield :











YOU CAN JOIN US ON...

 
LOGIN :

Register | Disclaimer

   EN    FR    IT 

 









Legend :    VFR   Marginal VFR   IFR   Intensive IFR   Very Intensive IFR
Visi :
Ceiling :
>= 8 km
>= 3000ft
5 to 8 km
1000 to 3000 ft
1500m to 5 km
500 to 1000 ft
800 to 1500m
200 to 500 ft
< 800m
< 200 ft
Symbols :   Thunderstorms  Fog  Heavy snow  Heavy precipitations  Wind > 20 kt






- Airport Elevation : 310 ft


K79J - South Alabama Regional At Bill Benton Field

CURRENT METAR :
  • 120256Z AUTO 02004KT 10SM OVC085 09/M03 A3042 RMK AO2 SLP299 T00941028 50003

EXPIRED METARs :
  • 120156Z AUTO 02003KT 10SM CLR 09/M03 A3042 RMK AO2 SLP302 T00891028
  • 120056Z AUTO 04003KT 10SM CLR 09/M03 A3041 RMK AO2 SLP298 T00941033

TAF N/A



MET'MAP, your aeronautical weather chart ! - Copyright ORBIFLY December 2007 - Disclaimer

ORBIFLY MET'MAP TEAM :

Programming & Development : Alexandra Zaïnal
Concept & original design : Baudouin d'Aumeries
Assistance for programming : Marc-Olivier Méhu
Technical & hardware support : Manuel Goepfert

Contact : metmap@orbifly.com




SOURCES & CREDITS :

   NOAA       Earth
Advisory